ENMS

Mosjøen , Kjærstad Airport

Norway
METAR ENMS 181050Z 01003KT 310V050 9999 FEW024 SCT030 BKN050 14/10 Q1002 RMK WIND 412FT VRB02KT
Observed Flight Rules
Jun-18 @ 10:50 UTC (36 minutes ago) Visual Flight Rules
Wind Visibility Clouds
10° at 3 knots 10,000+ meters
  • Few at 2,400' AGL
  • Scattered at 3,000' AGL
  • Broken at 5,000' AGL
Temperatures Readings
Current 14°C / 57°F
Dewpoint 10°C / 50°F
Humidity 77%
Altimeter 29.59" Hg
Pressure 1002 hPa
Elevation 70
METAR ENMS 181050Z 01003KT 310V050 9999 FEW024 SCT030 BKN050 14/10 Q1002 RMK WIND 412FT VRB02KT
Observed Flight Rules
Jun-18 @ 10:50 UTC
(36 minutes ago)
VFR
Wind Visibility
10° at 3 knots 10,000+ meters
Clouds
  • Few at 2,400' AGL
  • Scattered at 3,000' AGL
  • Broken at 5,000' AGL
Temperature Dewpoint
14°C / 57°F 10°C / 50°F
Humidity Altimeter Pressure
77% 29.59" Hg 1002 hPa